Česky Dansk Deutsch English Español Suomi Français Magyar Italiano Nederlands norsk Polski Português svenska Türkçe

 

Het Weer

Floro (Noorwegen)

20:50, 16 augustus 2016 (GMT)

NWNNE
WE
SWSSE
Home            
Floro Forde / Bringeland Sandane / Anda Orsta-Volda / Hovden Sogndal / Haukasen Alesund / Vigra Voss-Bo Bergen / Flesland Gullfax Platform Molde / Aro Stord / Soerstokken Kristiansund / Kvernberget Dagali Fagernes Leirin Frigg Haugesund / Karmoy Stavanger / Sola Notodden Unst Island Orland Iii Draugen Roros Lufthavn Oslo / Fornebu

Om een weerknop op uw website of weblog te plaatsen, copieer onderstaande code en plak die in uw pagina. In het eerste vakje staat HTML-code, in het tweede vakje UBB-code.


Add to Google

Details

Wind speed:1 bf, 1 kn, 0.5 m/s, 1.2 miles/h, 1.9 km/h
Wind direction:Variable
Temperature:14°C, 57°F
Dew-point:12°C, 54°F
Atmospheric pressure:1020 hPa, 765.1 mmHg, 30.12 inHg, 1.007 atm
Relative humidity:87.7 %
METAR:ENFL 162050Z AUTO VRB01KT 9999NDV NCD 14/12 Q1020

Snelkoppelingen

Actuele weersinformatie van de hele wereld. Voeg locaties toe met het plus (+) symbool. Deze snelkoppelingen kunnen worden toegevoegd aan Google.

Lid van de Technetium groep

website free tracking
StatCounter NetStat W3C Validator

18-08-2022 09:24:34
astro.technetium.be money.technetium.be phote.technetium.be tafeltennistafel.technetium.be www.ligfiets.net